Time;durP1;ratioP1;P1;durP2;ratioP2;P2;SDS_P1;SDS_P2;PMS_P1;PMS_P2;Temp;Humidity;BMP_temperature;BMP_pressure;BME280_temperature;BME280_humidity;BME280_pressure;Samples;Min_cycle;Max_cycle;Signal;HPM_P1;HPM_P2
2023/06/04 00:01:04;;;;;;;2.63;1.47;;;;;12.50;101515.00;;;;10521239;28;20658;-81
2023/06/04 00:06:17;;;;;;;4.30;1.40;;;;;12.40;101516.00;;;;10510625;28;20227;-81
2023/06/04 00:11:20;;;;;;;2.43;1.47;;;;;12.20;101508.00;;;;10536108;28;20209;-82
2023/06/04 00:16:22;;;;;;;1.10;0.90;;;;;12.10;101513.00;;;;10538825;28;20307;-81
2023/06/04 00:21:24;;;;;;;3.43;1.20;;;;;12.00;101507.00;;;;10510825;28;20240;-82
2023/06/04 00:26:26;;;;;;;5.23;1.80;;;;;11.90;101502.00;;;;10500236;28;20205;-80
2023/06/04 00:31:28;;;;;;;5.43;1.57;;;;;11.80;101496.00;;;;10506131;28;20706;-81
2023/06/04 00:36:31;;;;;;;3.73;2.00;;;;;11.60;101492.00;;;;10537482;28;20308;-81
2023/06/04 00:41:33;;;;;;;4.47;1.70;;;;;11.60;101495.00;;;;10517583;28;20204;-81
2023/06/04 00:46:38;;;;;;;6.30;1.97;;;;;11.60;101503.00;;;;10537713;28;20203;-81
2023/06/04 00:51:40;;;;;;;3.00;1.60;;;;;11.60;101501.00;;;;10527776;28;20212;-81
2023/06/04 00:56:43;;;;;;;5.07;1.70;;;;;11.60;101496.00;;;;10540688;28;20236;-81
2023/06/04 01:01:58;;;;;;;2.80;1.83;;;;;11.70;101493.00;;;;10519829;28;20199;-81
2023/06/04 01:07:03;;;;;;;5.50;1.40;;;;;11.80;101488.00;;;;10501568;28;20225;-81
2023/06/04 01:12:07;;;;;;;3.63;1.70;;;;;11.80;101495.00;;;;10524768;28;20208;-82
2023/06/04 01:17:18;;;;;;;3.57;1.40;;;;;11.80;101504.00;;;;10511444;28;20290;-82
2023/06/04 01:22:33;;;;;;;7.07;1.77;;;;;11.80;101492.00;;;;10526480;28;20233;-81
2023/06/04 01:27:35;;;;;;;4.57;1.50;;;;;11.70;101495.00;;;;10521159;28;20565;-81
2023/06/04 01:32:38;;;;;;;6.73;1.93;;;;;11.70;101500.00;;;;10512622;28;20197;-83
2023/06/04 01:37:40;;;;;;;2.77;1.40;;;;;11.60;101498.00;;;;10500160;28;20209;-82
2023/06/04 01:42:42;;;;;;;3.93;1.80;;;;;11.50;101500.00;;;;10485700;28;20287;-84
2023/06/04 01:47:44;;;;;;;2.53;1.70;;;;;11.50;101500.00;;;;10533847;28;20239;-83
2023/06/04 01:52:46;;;;;;;3.03;1.70;;;;;11.50;101494.00;;;;10515033;28;20205;-82
2023/06/04 01:57:48;;;;;;;2.60;1.57;;;;;11.50;101504.00;;;;10491477;28;20694;-82
2023/06/04 02:02:51;;;;;;;4.37;1.70;;;;;11.40;101503.00;;;;10541630;28;20223;-79
2023/06/04 02:07:54;;;;;;;4.37;1.90;;;;;11.40;101496.00;;;;10517560;28;20676;-72
2023/06/04 02:12:59;;;;;;;3.27;1.80;;;;;11.40;101498.00;;;;10538234;28;20200;-73
2023/06/04 02:18:15;;;;;;;4.90;1.73;;;;;11.30;101486.00;;;;10535192;28;20686;-82
2023/06/04 02:23:19;;;;;;;2.60;1.87;;;;;11.30;101502.00;;;;10539734;28;20223;-82
2023/06/04 02:28:22;;;;;;;2.60;1.80;;;;;11.20;101505.00;;;;10502838;28;20266;-82
2023/06/04 02:33:24;;;;;;;3.23;1.97;;;;;11.10;101511.00;;;;10527491;28;20205;-82
2023/06/04 02:38:26;;;;;;;8.47;2.23;;;;;11.00;101505.00;;;;10541043;28;20217;-82
2023/06/04 02:43:28;;;;;;;3.40;1.93;;;;;10.80;101497.00;;;;10523380;28;20208;-83
2023/06/04 02:48:30;;;;;;;5.20;2.20;;;;;10.70;101499.00;;;;10526341;28;20223;-82
2023/06/04 02:53:33;;;;;;;3.37;1.70;;;;;10.70;101510.00;;;;10527280;28;20201;-82
2023/06/04 02:58:39;;;;;;;5.30;1.90;;;;;10.50;101506.00;;;;10536134;28;20231;-81
2023/06/04 03:03:44;;;;;;;4.10;2.10;;;;;10.40;101510.00;;;;10534108;28;20212;-81
2023/06/04 03:08:51;;;;;;;4.50;2.13;;;;;10.30;101508.00;;;;10512285;28;20276;-83
2023/06/04 03:13:53;;;;;;;3.77;1.90;;;;;10.30;101504.00;;;;10525559;28;20211;-82
2023/06/04 03:18:56;;;;;;;3.40;2.10;;;;;10.30;101511.00;;;;10522188;28;20232;-82
2023/06/04 03:23:58;;;;;;;5.27;2.10;;;;;10.20;101502.00;;;;10523038;28;20558;-82
2023/06/04 03:29:01;;;;;;;5.63;2.27;;;;;10.20;101503.00;;;;10523402;28;20205;-81
2023/06/04 03:34:03;;;;;;;3.67;1.97;;;;;10.10;101509.00;;;;10527808;28;20201;-82
2023/06/04 03:39:06;;;;;;;2.87;1.87;;;;;10.10;101502.00;;;;10521622;28;20264;-82
2023/06/04 03:44:08;;;;;;;4.50;2.20;;;;;10.10;101503.00;;;;10495571;28;20219;-82
2023/06/04 03:49:13;;;;;;;9.17;2.27;;;;;10.10;101510.00;;;;10514669;28;20196;-80
2023/06/04 03:54:17;;;;;;;4.43;1.87;;;;;10.30;101504.00;;;;10531500;28;20624;-81
2023/06/04 03:59:21;;;;;;;6.23;2.23;;;;;10.30;101509.00;;;;10505021;28;20582;-81
2023/06/04 04:04:24;;;;;;;5.07;2.20;;;;;10.60;101512.00;;;;10525234;28;20282;-80
2023/06/04 04:09:26;;;;;;;2.97;2.37;;;;;10.60;101506.00;;;;10526245;28;20193;-80
2023/06/04 04:14:29;;;;;;;3.17;2.20;;;;;10.70;101520.00;;;;10531447;28;20207;-81
2023/06/04 04:19:32;;;;;;;4.80;2.53;;;;;10.90;101513.00;;;;10526817;28;20247;-80
2023/06/04 04:24:39;;;;;;;5.73;2.40;;;;;11.10;101516.00;;;;10529453;28;20635;-81
2023/06/04 04:29:43;;;;;;;2.97;1.93;;;;;11.20;101518.00;;;;10492629;28;20213;-80
2023/06/04 04:34:55;;;;;;;3.77;2.63;;;;;11.30;101522.00;;;;10520799;28;20203;-81
2023/06/04 04:40:09;;;;;;;3.80;2.53;;;;;11.40;101521.00;;;;10501891;28;20298;-81
2023/06/04 04:45:13;;;;;;;5.77;2.50;;;;;11.50;101520.00;;;;10510254;28;20217;-81
2023/06/04 04:50:17;;;;;;;6.43;2.50;;;;;11.70;101526.00;;;;10540930;28;20294;-80
2023/06/04 04:55:19;;;;;;;2.70;2.20;;;;;11.90;101518.00;;;;10538318;28;20567;-78
2023/06/04 05:00:23;;;;;;;3.77;2.50;;;;;12.30;101522.00;;;;10518327;28;20269;-81
2023/06/04 05:05:29;;;;;;;4.97;2.27;;;;;12.70;101532.00;;;;10523017;28;20232;-82
2023/06/04 05:10:31;;;;;;;5.10;2.57;;;;;13.20;101544.00;;;;10522562;28;20574;-81
2023/06/04 05:15:34;;;;;;;5.57;2.60;;;;;13.60;101537.00;;;;10514063;28;20263;-83
2023/06/04 05:20:37;;;;;;;4.00;2.30;;;;;14.00;101539.00;;;;10519913;28;20221;-81
2023/06/04 05:25:43;;;;;;;9.20;2.47;;;;;14.40;101544.00;;;;10532147;28;20284;-82
2023/06/04 05:30:48;;;;;;;5.90;2.70;;;;;14.80;101537.00;;;;10515196;28;20196;-83
2023/06/04 05:35:54;;;;;;;4.73;2.70;;;;;15.30;101538.00;;;;10518390;28;20658;-83
2023/06/04 05:40:57;;;;;;;5.13;2.93;;;;;15.90;101537.00;;;;10523492;28;20249;-82
2023/06/04 05:46:03;;;;;;;5.50;2.88;;;;;16.40;101533.00;;;;10500958;28;20559;-82
2023/06/04 05:51:05;;;;;;;4.40;2.50;;;;;16.80;101538.00;;;;10507617;28;20206;-84
2023/06/04 05:56:09;;;;;;;3.22;2.38;;;;;17.10;101541.00;;;;10509364;28;20234;-83
2023/06/04 06:01:11;;;;;;;4.22;2.38;;;;;17.40;101551.00;;;;10520688;28;20212;-83
2023/06/04 06:06:13;;;;;;;3.72;2.85;;;;;17.80;101557.00;;;;10510029;28;20229;-83
2023/06/04 06:11:16;;;;;;;8.95;2.60;;;;;18.20;101553.00;;;;10525577;28;20284;-83
2023/06/04 06:16:18;;;;;;;5.25;2.42;;;;;18.50;101554.00;;;;10512882;28;20204;-83
2023/06/04 06:21:21;;;;;;;6.88;2.63;;;;;18.80;101552.00;;;;10519553;28;20216;-80
2023/06/04 06:26:24;;;;;;;4.95;2.38;;;;;19.10;101558.00;;;;10536323;28;20196;-82
2023/06/04 06:31:30;;;;;;;3.70;2.88;;;;;19.40;101555.00;;;;10544651;28;20212;-82
2023/06/04 06:36:33;;;;;;;4.35;2.10;;;;;19.90;101557.00;;;;10547745;28;20219;-83
2023/06/04 06:41:38;;;;;;;5.38;2.38;;;;;20.30;101560.00;;;;10554188;27;20196;-82
2023/06/04 06:46:44;;;;;;;4.15;2.80;;;;;20.70;101562.00;;;;10514284;28;20201;-82
2023/06/04 06:51:46;;;;;;;2.90;2.00;;;;;21.00;101572.00;;;;10493008;28;20601;-83
2023/06/04 06:56:50;;;;;;;4.60;2.63;;;;;21.30;101578.00;;;;10535341;28;20207;-81
2023/06/04 07:01:52;;;;;;;4.30;2.25;;;;;21.30;101580.00;;;;10532146;28;20202;-84
2023/06/04 07:06:54;;;;;;;5.57;2.47;;;;;21.70;101585.00;;;;10514966;28;20578;-82
2023/06/04 07:11:56;;;;;;;3.28;2.00;;;;;22.20;101590.00;;;;10534217;28;20201;-81
2023/06/04 07:16:58;;;;;;;7.55;1.88;;;;;22.60;101587.00;;;;10522771;28;20255;-81
2023/06/04 07:22:01;;;;;;;4.15;1.90;;;;;23.10;101595.00;;;;10515119;28;20251;-83
2023/06/04 07:27:11;;;;;;;3.45;1.70;;;;;23.40;101595.00;;;;10521110;28;20200;-82
2023/06/04 07:32:13;;;;;;;5.63;2.13;;;;;23.80;101586.00;;;;10545001;28;20203;-83
2023/06/04 07:37:15;;;;;;;7.25;2.05;;;;;24.10;101585.00;;;;10545841;28;20221;-83
2023/06/04 07:42:17;;;;;;;1.52;1.40;;;;;24.30;101585.00;;;;10544517;28;20203;-82
2023/06/04 07:47:20;;;;;;;3.10;1.50;;;;;24.60;101590.00;;;;10545093;28;20197;-82
2023/06/04 07:52:22;;;;;;;2.58;1.40;;;;;25.00;101593.00;;;;10515689;28;20200;-81
2023/06/04 07:57:24;;;;;;;1.95;1.20;;;;;25.10;101590.00;;;;10520550;28;20621;-82
2023/06/04 08:02:26;;;;;;;4.30;1.55;;;;;25.50;101588.00;;;;10517954;28;20205;-82
2023/06/04 08:07:29;;;;;;;3.60;1.30;;;;;25.40;101592.00;;;;10509635;28;20219;-82
2023/06/04 08:12:32;;;;;;;5.50;1.40;;;;;25.30;101582.00;;;;10528844;28;20201;-81
2023/06/04 08:17:34;;;;;;;2.08;1.30;;;;;25.40;101599.00;;;;10531452;28;20224;-80
2023/06/04 08:22:52;;;;;;;2.40;1.20;;;;;25.70;101594.00;;;;10504081;28;20734;-82
2023/06/04 08:28:01;;;;;;;3.15;1.25;;;;;26.20;101607.00;;;;10526327;28;20571;-83
2023/06/04 08:33:23;;;;;;;3.85;1.33;;;;;26.50;101612.00;;;;10529846;27;20564;-79
2023/06/04 08:38:45;;;;;;;1.60;1.30;;;;;26.60;101596.00;;;;10521311;28;20231;-80
2023/06/04 08:43:56;;;;;;;2.38;1.60;;;;;27.00;101600.00;;;;10510758;28;20204;-81
2023/06/04 08:49:03;;;;;;;2.08;1.00;;;;;27.20;101598.00;;;;10510455;28;20273;-82
2023/06/04 08:54:07;;;;;;;3.17;1.25;;;;;27.60;101598.00;;;;10530078;28;20655;-82
2023/06/04 08:59:10;;;;;;;3.28;1.50;;;;;28.10;101596.00;;;;10527051;28;20227;-83
2023/06/04 09:04:12;;;;;;;2.92;1.40;;;;;28.30;101615.00;;;;10523313;28;20236;-82
2023/06/04 09:09:17;;;;;;;2.08;1.25;;;;;28.70;101597.00;;;;10526455;28;20214;-84
2023/06/04 09:14:20;;;;;;;2.05;1.30;;;;;29.10;101615.00;;;;10529541;28;20250;-83
2023/06/04 09:19:22;;;;;;;2.92;1.55;;;;;29.30;101617.00;;;;10520172;28;20229;-83
2023/06/04 09:24:40;;;;;;;3.13;1.25;;;;;29.60;101612.00;;;;10523520;28;20248;-82
2023/06/04 09:29:51;;;;;;;3.22;1.50;;;;;29.70;101612.00;;;;10530321;28;20662;-83
2023/06/04 09:35:09;;;;;;;4.13;1.25;;;;;29.40;101605.00;;;;10536489;28;20197;-81
2023/06/04 09:40:11;;;;;;;1.50;1.30;;;;;29.10;101614.00;;;;10523504;28;20213;-83
2023/06/04 09:45:13;;;;;;;5.47;1.30;;;;;29.40;101604.00;;;;10529997;28;20659;-84
2023/06/04 09:50:30;;;;;;;2.50;1.30;;;;;29.70;101602.00;;;;10511860;28;20216;-82
2023/06/04 09:55:32;;;;;;;3.90;1.60;;;;;29.50;101606.00;;;;10539316;28;20219;-83
2023/06/04 10:00:35;;;;;;;5.10;1.40;;;;;30.00;101594.00;;;;10520123;28;20213;-83
2023/06/04 10:05:38;;;;;;;1.35;1.10;;;;;30.50;101603.00;;;;10499263;28;20202;-82
2023/06/04 10:10:41;;;;;;;4.00;1.55;;;;;30.60;101593.00;;;;10513770;28;20228;-84
2023/06/04 10:15:44;;;;;;;1.70;1.38;;;;;30.70;101602.00;;;;10540851;28;20222;-83
2023/06/04 10:20:46;;;;;;;2.00;1.25;;;;;30.60;101597.00;;;;10521859;28;20270;-82
2023/06/04 10:25:52;;;;;;;2.28;1.30;;;;;30.60;101594.00;;;;10540688;28;20200;-83
2023/06/04 10:30:54;;;;;;;2.83;1.25;;;;;30.60;101595.00;;;;10517319;28;20548;-83
2023/06/04 10:35:56;;;;;;;2.03;1.40;;;;;30.90;101593.00;;;;10525933;28;20651;-83
2023/06/04 10:40:58;;;;;;;5.68;1.40;;;;;31.00;101594.00;;;;10517549;28;20299;-84
2023/06/04 10:46:14;;;;;;;3.22;1.73;;;;;31.30;101593.00;;;;10521439;28;20689;-82
2023/06/04 10:51:37;;;;;;;2.47;1.25;;;;;31.30;101575.00;;;;10504880;28;20216;-83
2023/06/04 10:56:39;;;;;;;2.63;1.77;;;;;31.50;101592.00;;;;10520542;28;20225;-83
2023/06/04 11:01:41;;;;;;;3.70;1.23;;;;;31.90;101596.00;;;;10534222;28;20212;-83
2023/06/04 11:06:44;;;;;;;1.85;1.48;;;;;32.10;101594.00;;;;10547256;28;20213;-83
2023/06/04 11:11:59;;;;;;;2.28;1.33;;;;;32.10;101588.00;;;;10543667;28;20677;-83
2023/06/04 11:17:12;;;;;;;1.63;1.30;;;;;31.90;101574.00;;;;10546450;28;20211;-83
2023/06/04 11:22:14;;;;;;;4.47;1.40;;;;;32.00;101588.00;;;;10525998;28;20249;-82
2023/06/04 11:27:16;;;;;;;2.30;1.10;;;;;32.10;101572.00;;;;10525808;28;20197;-82
2023/06/04 11:32:37;;;;;;;3.05;1.20;;;;;32.00;101573.00;;;;10559523;28;20200;-82
2023/06/04 11:37:40;;;;;;;2.55;1.30;;;;;32.00;101573.00;;;;10505326;28;20213;-83
2023/06/04 11:42:45;;;;;;;1.77;1.38;;;;;32.10;101563.00;;;;10508276;28;20577;-83
2023/06/04 11:47:48;;;;;;;3.25;1.15;;;;;32.50;101560.00;;;;10535785;28;20225;-83
2023/06/04 11:52:52;;;;;;;5.43;1.40;;;;;32.60;101557.00;;;;10544324;28;20197;-84
2023/06/04 11:57:54;;;;;;;2.47;1.23;;;;;32.80;101553.00;;;;10502116;28;20611;-84
2023/06/04 12:02:57;;;;;;;4.75;1.50;;;;;33.10;101555.00;;;;10529819;28;20269;-84
2023/06/04 12:08:08;;;;;;;2.25;1.20;;;;;33.20;101556.00;;;;10525138;28;20312;-83
2023/06/04 12:13:11;;;;;;;3.72;1.40;;;;;33.10;101556.00;;;;10527103;28;20208;-83
2023/06/04 12:18:24;;;;;;;1.80;1.10;;;;;33.10;101543.00;;;;10522089;28;20221;-83
2023/06/04 12:23:26;;;;;;;2.72;1.40;;;;;32.90;101545.00;;;;10502524;28;20681;-82
2023/06/04 12:28:28;;;;;;;3.58;1.17;;;;;32.60;101549.00;;;;10518533;28;20216;-81
2023/06/04 12:33:30;;;;;;;3.75;1.73;;;;;32.30;101549.00;;;;10517776;28;20203;-83
2023/06/04 12:38:32;;;;;;;2.15;1.35;;;;;32.60;101539.00;;;;10527423;28;20209;-84
2023/06/04 12:43:37;;;;;;;2.90;1.40;;;;;32.60;101542.00;;;;10526803;28;20563;-84
2023/06/04 12:48:38;;;;;;;1.83;1.10;;;;;32.60;101536.00;;;;10519668;28;20248;-81
2023/06/04 12:53:44;;;;;;;2.38;1.85;;;;;32.70;101531.00;;;;10515584;28;20216;-82
2023/06/04 12:58:46;;;;;;;3.63;1.30;;;;;32.20;101533.00;;;;10522050;28;20296;-83
2023/06/04 13:03:48;;;;;;;4.35;1.35;;;;;32.10;101529.00;;;;10521145;28;20266;-84
2023/06/04 13:08:51;;;;;;;2.97;1.40;;;;;32.40;101526.00;;;;10541626;28;20266;-84
2023/06/04 13:13:53;;;;;;;6.68;1.58;;;;;32.60;101529.00;;;;10537944;28;20204;-84
2023/06/04 13:18:55;;;;;;;2.70;1.15;;;;;32.20;101542.00;;;;10514540;28;20606;-83
2023/06/04 13:23:57;;;;;;;3.95;1.10;;;;;31.90;101541.00;;;;10527275;28;20197;-84
2023/06/04 13:28:59;;;;;;;1.80;1.20;;;;;32.10;101536.00;;;;10526572;28;20248;-83
2023/06/04 13:34:01;;;;;;;6.07;1.40;;;;;32.20;101524.00;;;;10518999;28;20213;-82
2023/06/04 13:39:15;;;;;;;2.28;1.10;;;;;31.90;101530.00;;;;10515078;28;20213;-83
2023/06/04 13:44:18;;;;;;;2.42;1.23;;;;;31.90;101526.00;;;;10524422;28;20271;-82
2023/06/04 13:49:20;;;;;;;3.47;1.30;;;;;32.20;101524.00;;;;10529138;28;20941;-83
2023/06/04 13:54:22;;;;;;;2.00;1.65;;;;;32.20;101526.00;;;;10521982;28;20201;-83
2023/06/04 13:59:24;;;;;;;2.55;1.20;;;;;32.00;101529.00;;;;10509437;28;20201;-84
2023/06/04 14:04:27;;;;;;;3.63;1.45;;;;;31.60;101523.00;;;;10502091;28;20291;-83
2023/06/04 14:09:29;;;;;;;2.72;1.50;;;;;31.50;101517.00;;;;10523275;28;20682;-83
2023/06/04 14:14:36;;;;;;;1.58;1.48;;;;;31.20;101504.00;;;;10510575;28;20296;-83
2023/06/04 14:19:40;;;;;;;1.67;1.33;;;;;31.10;101501.00;;;;10525772;28;20727;-84
2023/06/04 14:24:42;;;;;;;3.33;1.17;;;;;31.10;101509.00;;;;10528255;28;20734;-83
2023/06/04 14:29:44;;;;;;;1.52;1.33;;;;;31.00;101501.00;;;;10499957;28;20212;-84
2023/06/04 14:34:46;;;;;;;3.25;1.38;;;;;31.20;101503.00;;;;10525208;28;20200;-84
2023/06/04 14:39:48;;;;;;;2.45;1.30;;;;;31.80;101489.00;;;;10519735;28;20296;-84
2023/06/04 14:44:50;;;;;;;2.95;1.55;;;;;32.40;101494.00;;;;10532870;28;20250;-84
2023/06/04 14:49:53;;;;;;;5.43;1.70;;;;;32.30;101489.00;;;;10520560;28;20645;-84
2023/06/04 14:54:55;;;;;;;2.25;1.27;;;;;33.20;101492.00;;;;10515409;28;20205;-85
2023/06/04 14:59:57;;;;;;;6.88;2.00;;;;;34.30;101484.00;;;;10533496;28;20659;-83
2023/06/04 15:04:59;;;;;;;1.65;1.40;;;;;35.30;101475.00;;;;10515439;28;20232;-84
2023/06/04 15:10:02;;;;;;;1.88;1.17;;;;;36.00;101475.00;;;;10520526;28;20267;-83
2023/06/04 15:15:06;;;;;;;1.77;1.10;;;;;36.40;101478.00;;;;10507745;28;20210;-84
2023/06/04 15:20:08;;;;;;;4.40;1.50;;;;;36.80;101472.00;;;;10539850;28;20201;-83
2023/06/04 15:25:10;;;;;;;3.13;1.15;;;;;37.30;101475.00;;;;10522818;28;20229;-82
2023/06/04 15:30:13;;;;;;;2.20;1.20;;;;;34.60;101485.00;;;;10513265;28;20217;-81
2023/06/04 15:35:15;;;;;;;1.25;1.15;;;;;31.30;101469.00;;;;10527442;28;20205;-82
2023/06/04 15:40:17;;;;;;;2.13;1.42;;;;;30.10;101472.00;;;;10535607;28;20196;-84
2023/06/04 15:45:24;;;;;;;3.65;1.50;;;;;30.70;101469.00;;;;10511670;28;20202;-82
2023/06/04 15:50:26;;;;;;;7.80;5.10;;;;;28.80;101467.00;;;;10515069;28;20265;-84
2023/06/04 15:55:28;;;;;;;4.97;3.70;;;;;28.10;101473.00;;;;10525476;28;20200;-82
2023/06/04 16:00:30;;;;;;;7.68;5.25;;;;;27.80;101462.00;;;;10542640;28;20209;-83
2023/06/04 16:05:32;;;;;;;4.07;1.52;;;;;27.50;101454.00;;;;10522340;28;20201;-82
2023/06/04 16:10:35;;;;;;;2.40;1.60;;;;;27.20;101447.00;;;;10523854;28;20213;-83
2023/06/04 16:15:37;;;;;;;7.22;4.32;;;;;27.00;101443.00;;;;10541408;28;20695;-82
2023/06/04 16:20:39;;;;;;;4.10;1.55;;;;;26.70;101440.00;;;;10542662;28;20201;-83
2023/06/04 16:25:41;;;;;;;5.45;1.70;;;;;26.50;101439.00;;;;10544980;28;20224;-82
2023/06/04 16:30:44;;;;;;;3.28;2.15;;;;;26.20;101434.00;;;;10538759;28;20758;-84
2023/06/04 16:35:46;;;;;;;3.67;2.28;;;;;26.20;101437.00;;;;10529296;28;20674;-83
2023/06/04 16:40:48;;;;;;;2.83;1.77;;;;;26.00;101434.00;;;;10539102;28;20291;-84
2023/06/04 16:45:50;;;;;;;1.95;1.38;;;;;25.90;101428.00;;;;10523109;28;20223;-84
2023/06/04 16:50:54;;;;;;;3.50;1.63;;;;;25.80;101426.00;;;;10530975;28;20217;-82
2023/06/04 16:55:56;;;;;;;3.90;2.25;;;;;25.70;101430.00;;;;10534557;28;20200;-84
2023/06/04 17:00:58;;;;;;;3.58;1.40;;;;;25.60;101423.00;;;;10526646;28;20205;-84
2023/06/04 17:06:00;;;;;;;2.28;1.80;;;;;25.50;101423.00;;;;10522278;28;20253;-84
2023/06/04 17:11:02;;;;;;;4.50;1.80;;;;;25.40;101429.00;;;;10500475;28;20275;-84
2023/06/04 17:16:04;;;;;;;4.07;1.90;;;;;25.20;101425.00;;;;10515248;28;20189;-85
2023/06/04 17:21:06;;;;;;;4.20;2.00;;;;;25.10;101431.00;;;;10504582;28;20205;-85
2023/06/04 17:26:08;;;;;;;3.78;1.73;;;;;25.00;101425.00;;;;10526996;28;20667;-84
2023/06/04 17:31:16;;;;;;;2.30;1.40;;;;;25.00;101426.00;;;;10537148;28;20643;-85
2023/06/04 17:36:20;;;;;;;2.70;1.50;;;;;24.80;101417.00;;;;10537703;28;20212;-83
2023/06/04 17:41:22;;;;;;;4.43;1.63;;;;;24.70;101417.00;;;;10505226;28;20286;-85
2023/06/04 17:46:24;;;;;;;4.32;1.90;;;;;24.60;101424.00;;;;10516689;28;20228;-84
2023/06/04 17:51:26;;;;;;;3.35;1.50;;;;;24.50;101421.00;;;;10540361;28;20382;-84
2023/06/04 17:56:29;;;;;;;2.65;1.50;;;;;24.30;101421.00;;;;10542973;28;20189;-84
2023/06/04 18:01:31;;;;;;;1.75;1.65;;;;;24.20;101426.00;;;;10520050;28;20598;-84
2023/06/04 18:06:33;;;;;;;3.35;1.50;;;;;24.10;101437.00;;;;10503006;28;20245;-84
2023/06/04 18:11:35;;;;;;;2.75;1.65;;;;;23.90;101423.00;;;;10503525;28;20720;-84
2023/06/04 18:16:38;;;;;;;7.35;1.90;;;;;23.70;101434.00;;;;10494860;28;20279;-85
2023/06/04 18:21:40;;;;;;;1.80;1.70;;;;;23.60;101437.00;;;;10534465;28;20212;-75
2023/06/04 18:26:42;;;;;;;3.38;1.58;;;;;23.50;101432.00;;;;10538712;28;20671;-75
2023/06/04 18:31:44;;;;;;;4.32;1.80;;;;;23.30;101434.00;;;;10517129;28;20272;-74
2023/06/04 18:36:52;;;;;;;4.18;1.75;;;;;23.20;101433.00;;;;10509636;28;20266;-74
2023/06/04 18:41:56;;;;;;;2.65;1.80;;;;;23.00;101439.00;;;;10507949;28;20677;-74
2023/06/04 18:46:59;;;;;;;3.20;1.70;;;;;22.80;101432.00;;;;10509155;28;20272;-74
2023/06/04 18:52:01;;;;;;;2.22;1.70;;;;;22.60;101440.00;;;;10500086;28;20226;-75
2023/06/04 18:57:04;;;;;;;2.90;1.75;;;;;22.40;101434.00;;;;10530028;28;20539;-74
2023/06/04 19:02:06;;;;;;;3.30;1.65;;;;;22.20;101439.00;;;;10532590;28;20255;-74
2023/06/04 19:07:08;;;;;;;1.73;1.52;;;;;22.00;101445.00;;;;10531751;28;20258;-73
2023/06/04 19:12:10;;;;;;;3.65;1.60;;;;;21.80;101442.00;;;;10525850;28;20649;-74
2023/06/04 19:17:20;;;;;;;2.65;1.25;;;;;21.60;101450.00;;;;10508244;28;20200;-74
2023/06/04 19:22:22;;;;;;;4.07;1.77;;;;;21.30;101464.00;;;;10526372;28;20201;-75
2023/06/04 19:27:25;;;;;;;5.25;1.63;;;;;21.00;101463.00;;;;10517858;28;20666;-74
2023/06/04 19:32:27;;;;;;;5.30;2.08;;;;;20.70;101470.00;;;;10545540;28;20682;-74
2023/06/04 19:37:30;;;;;;;4.32;1.90;;;;;20.50;101465.00;;;;10531055;27;20201;-74
2023/06/04 19:42:32;;;;;;;5.70;1.67;;;;;20.20;101479.00;;;;10531324;28;20293;-74
2023/06/04 19:47:34;;;;;;;3.78;1.75;;;;;20.00;101485.00;;;;10504754;28;20200;-74
2023/06/04 19:52:36;;;;;;;2.47;1.50;;;;;19.80;101485.00;;;;10543529;28;20279;-74
2023/06/04 19:57:40;;;;;;;8.38;2.20;;;;;19.60;101493.00;;;;10517079;28;20209;-74
2023/06/04 20:02:42;;;;;;;3.15;1.83;;;;;19.50;101494.00;;;;10542770;28;20604;-74
2023/06/04 20:07:44;;;;;;;2.50;1.40;;;;;19.30;101506.00;;;;10557913;27;20201;-74
2023/06/04 20:12:46;;;;;;;3.15;1.63;;;;;19.20;101503.00;;;;10523044;28;20213;-74
2023/06/04 20:17:48;;;;;;;5.85;1.85;;;;;19.00;101515.00;;;;10501469;28;20236;-74
2023/06/04 20:22:51;;;;;;;4.47;1.80;;;;;18.80;101523.00;;;;10514126;28;20213;-75
2023/06/04 20:27:53;;;;;;;3.72;1.75;;;;;18.70;101526.00;;;;10541740;28;20197;-74
2023/06/04 20:32:55;;;;;;;6.38;1.95;;;;;18.60;101525.00;;;;10502313;28;20201;-73
2023/06/04 20:37:57;;;;;;;4.78;1.90;;;;;18.50;101539.00;;;;10528440;28;20208;-74
2023/06/04 20:42:59;;;;;;;5.60;2.10;;;;;18.40;101539.00;;;;10523282;28;20217;-74
2023/06/04 20:48:01;;;;;;;3.72;1.75;;;;;18.30;101542.00;;;;10522832;28;20221;-74
2023/06/04 20:53:03;;;;;;;7.45;2.03;;;;;18.20;101545.00;;;;10522974;28;20283;-73
2023/06/04 20:58:05;;;;;;;3.47;2.00;;;;;18.00;101539.00;;;;10516046;28;20201;-73
2023/06/04 21:03:07;;;;;;;4.68;2.28;;;;;17.90;101549.00;;;;10520543;28;20229;-73
2023/06/04 21:08:10;;;;;;;6.90;2.10;;;;;17.80;101548.00;;;;10514320;28;20694;-73
2023/06/04 21:13:11;;;;;;;3.50;1.88;;;;;17.70;101557.00;;;;10520453;28;20216;-74
2023/06/04 21:18:15;;;;;;;4.53;1.95;;;;;17.50;101560.00;;;;10528245;28;20194;-75
2023/06/04 21:23:17;;;;;;;4.45;2.15;;;;;17.40;101564.00;;;;10510934;28;20220;-72
2023/06/04 21:28:20;;;;;;;4.03;2.05;;;;;17.30;101570.00;;;;10524705;28;20201;-75
2023/06/04 21:33:22;;;;;;;6.75;2.35;;;;;17.20;101578.00;;;;10536759;28;20221;-72
2023/06/04 21:38:26;;;;;;;9.45;2.17;;;;;17.10;101579.00;;;;10522759;28;20228;-74
2023/06/04 21:43:28;;;;;;;6.23;2.30;;;;;17.00;101583.00;;;;10515874;28;20642;-72
2023/06/04 21:48:30;;;;;;;4.13;2.17;;;;;16.90;101579.00;;;;10526086;28;20200;-72
2023/06/04 21:53:33;;;;;;;8.45;2.38;;;;;16.80;101589.00;;;;10530625;28;20196;-72
2023/06/04 21:58:35;;;;;;;5.50;2.55;;;;;16.70;101588.00;;;;10525979;28;20205;-73
2023/06/04 22:03:37;;;;;;;3.28;1.95;;;;;16.60;101593.00;;;;10515784;28;20220;-73
2023/06/04 22:08:39;;;;;;;4.03;2.20;;;;;16.50;101597.00;;;;10517620;28;20250;-73
2023/06/04 22:13:41;;;;;;;7.40;2.27;;;;;16.40;101596.00;;;;10508658;28;20558;-72
2023/06/04 22:18:43;;;;;;;5.57;2.50;;;;;16.30;101597.00;;;;10511711;28;20216;-73
2023/06/04 22:23:55;;;;;;;5.40;2.27;;;;;16.20;101596.00;;;;10503471;28;20209;-73
2023/06/04 22:28:57;;;;;;;6.30;2.37;;;;;16.10;101600.00;;;;10506669;28;20221;-73
2023/06/04 22:33:59;;;;;;;7.33;2.93;;;;;16.00;101612.00;;;;10499066;28;20205;-73
2023/06/04 22:39:01;;;;;;;4.77;3.07;;;;;15.90;101606.00;;;;10513349;28;20207;-75
2023/06/04 22:44:04;;;;;;;6.03;2.70;;;;;15.80;101609.00;;;;10523246;28;20193;-73
2023/06/04 22:49:06;;;;;;;8.50;2.60;;;;;15.70;101606.00;;;;10533104;28;20658;-72
2023/06/04 22:54:08;;;;;;;8.83;2.90;;;;;15.60;101612.00;;;;10519062;28;20635;-75
2023/06/04 22:59:10;;;;;;;6.17;2.73;;;;;15.50;101603.00;;;;10518388;28;20236;-73
2023/06/04 23:04:12;;;;;;;4.80;2.77;;;;;15.40;101596.00;;;;10506586;28;20291;-71
2023/06/04 23:09:14;;;;;;;5.53;2.50;;;;;15.30;101607.00;;;;10537972;28;20197;-72
2023/06/04 23:14:17;;;;;;;5.07;2.60;;;;;15.20;101614.00;;;;10536407;28;20205;-72
2023/06/04 23:19:19;;;;;;;9.73;2.80;;;;;15.20;101614.00;;;;10522988;28;20201;-72
2023/06/04 23:24:22;;;;;;;5.10;2.93;;;;;15.10;101624.00;;;;10538062;28;20531;-72
2023/06/04 23:29:24;;;;;;;5.70;2.70;;;;;15.00;101623.00;;;;10535311;28;20614;-71
2023/06/04 23:34:26;;;;;;;7.53;3.53;;;;;14.90;101615.00;;;;10533740;28;20716;-72
2023/06/04 23:39:28;;;;;;;7.53;3.13;;;;;14.80;101615.00;;;;10517703;27;20623;-72
2023/06/04 23:44:31;;;;;;;6.20;2.67;;;;;14.70;101615.00;;;;10510694;28;20208;-71
2023/06/04 23:49:33;;;;;;;6.33;3.03;;;;;14.60;101608.00;;;;10528324;28;20195;-72
2023/06/04 23:54:35;;;;;;;7.23;2.90;;;;;14.50;101603.00;;;;10538951;28;20193;-72
2023/06/04 23:59:37;;;;;;;9.93;3.37;;;;;14.50;101608.00;;;;10530217;28;20674;-72
